KJFK

John F Kennedy International Airport

New York, New York, USA
KJFK 250831Z 2509/2612 11012KT 3SM RA BR OVC006 TEMPO 2513/2516 1SM +RA BR SCT006 OVC012 FM251600 10014G20KT 2SM SHRA BR OVC006 FM251800 14007KT 3SM -SHRA BR OVC006 FM252100 VRB05KT 1/2SM -SHRA FG OVC004 FM260700 28007KT 3SM BR SCT007 OVC015 FM261000 29012KT P6SM FEW010 BKN025
Issued Valid From Valid To
Apr-25 @ 08:31 UTC
(11 minutes ago)
Apr-25 @ 09:00 UTC
(in 18 minutes)
Apr-26 @ 12:00 UTC
(-1 days ago)
Apr-25 @ 09:00 to Apr-25 @ 16:00
KJFK 250831Z 2509/2612 11012KT 3SM RA BR OVC006
Wind Visibility Clouds Conditions
110° at 12 knots 3 miles
  • Overcast at 600' AGL
  • Rain
  • Mist
Temporary Apr-25 @ 13:00 to Apr-25 @ 16:00
TEMPO 2513/2516 1SM +RA BR SCT006 OVC012
Visibility Clouds Conditions
1 miles
  • Scattered at 600' AGL
  • Overcast at 1,200' AGL
  • Heavy Rain
  • Mist
From Apr-25 @ 16:00 to Apr-25 @ 18:00
FM251600 10014G20KT 2SM SHRA BR OVC006
Wind Visibility Clouds Conditions
100° at 14 knots
 Gusting to 20 knots
2 miles
  • Overcast at 600' AGL
  • Rain
  • Mist
From Apr-25 @ 18:00 to Apr-25 @ 21:00
FM251800 14007KT 3SM -SHRA BR OVC006
Wind Visibility Clouds Conditions
140° at 7 knots 3 miles
  • Overcast at 600' AGL
  • Light Rain
  • Mist
From Apr-25 @ 21:00 to Apr-26 @ 07:00
FM252100 VRB05KT 1/2SM -SHRA FG OVC004
Wind Visibility Clouds Conditions
Variable at 5 knots 1/2 miles
  • Overcast at 400' AGL
  • Light Rain
  • Fog
From Apr-26 @ 07:00 to Apr-26 @ 10:00
FM260700 28007KT 3SM BR SCT007 OVC015
Wind Visibility Clouds Conditions
280° at 7 knots 3 miles
  • Scattered at 700' AGL
  • Overcast at 1,500' AGL
  • Mist
From Apr-26 @ 10:00 to Apr-26 @ 12:00
FM261000 29012KT P6SM FEW010 BKN025
Wind Visibility Clouds
290° at 12 knots Greater than 6 miles
  • Few at 1,000' AGL
  • Broken at 2,500' AGL
KJFK 250831Z 2509/2612 11012KT 3SM RA BR OVC006 TEMPO 2513/2516 1SM +RA BR SCT006 OVC012 FM251600 10014G20KT 2SM SHRA BR OVC006 FM251800 14007KT 3SM -SHRA BR OVC006 FM252100 VRB05KT 1/2SM -SHRA FG OVC004 FM260700 28007KT 3SM BR SCT007 OVC015 FM261000 29012KT P6SM FEW010 BKN025
Issued Apr-25 @ 08:31 UTC
(11 minutes ago)
Valid From Apr-25 @ 09:00 UTC
(in 18 minutes)
Valid To Apr-26 @ 12:00 UTC
(-1 days ago)
Apr-25 @ 09:00 - Apr-25 @ 16:00
Wind Visibility
110° at 12 knots 3 miles
Clouds
  • Overcast at 600' AGL
Conditions
  • Rain
  • Mist
Temporary Apr-25 @ 13:00 - Apr-25 @ 16:00
Clouds
  • Scattered at 600' AGL
  • Overcast at 1,200' AGL
Conditions
  • Heavy Rain
  • Mist
From Apr-25 @ 16:00 - Apr-25 @ 18:00
Wind Visibility
100° at 14 knots
 Gusting to 20 knots
2 miles
Clouds
  • Overcast at 600' AGL
Conditions
  • Rain
  • Mist
From Apr-25 @ 18:00 - Apr-25 @ 21:00
Wind Visibility
140° at 7 knots 3 miles
Clouds
  • Overcast at 600' AGL
Conditions
  • Light Rain
  • Mist
From Apr-25 @ 21:00 - Apr-26 @ 07:00
Wind Visibility
Variable at 5 knots 1/2 miles
Clouds
  • Overcast at 400' AGL
Conditions
  • Light Rain
  • Fog
From Apr-26 @ 07:00 - Apr-26 @ 10:00
Wind Visibility
280° at 7 knots 3 miles
Clouds
  • Scattered at 700' AGL
  • Overcast at 1,500' AGL
Conditions
  • Mist
From Apr-26 @ 10:00 - Apr-26 @ 12:00
Wind Visibility
290° at 12 knots Greater than 6 miles
Clouds
  • Few at 1,000' AGL
  • Broken at 2,500' AGL